createdAt,value
2022-10-31T00:00:26.359Z,2.65
2022-10-31T00:01:02.171Z,3.08
2022-10-31T00:01:36.073Z,2.53
2022-10-31T00:02:10.870Z,2.33
2022-10-31T00:02:43.614Z,2.38
2022-10-31T00:03:15.844Z,2.85
2022-10-31T00:03:51.084Z,2.50
2022-10-31T00:04:23.251Z,2.83
2022-10-31T00:04:55.373Z,2.40
2022-10-31T00:05:30.092Z,2.35
2022-10-31T00:06:02.824Z,2.58
2022-10-31T00:06:34.934Z,2.40
2022-10-31T00:07:09.617Z,2.25
2022-10-31T00:07:41.681Z,2.28
2022-10-31T00:08:13.811Z,3.10
2022-10-31T00:08:48.576Z,2.83
2022-10-31T00:09:20.750Z,2.20
2022-10-31T00:09:52.832Z,2.55
2022-10-31T00:10:27.478Z,2.63
2022-10-31T00:10:59.635Z,2.22
2022-10-31T00:11:32.014Z,2.63
2022-10-31T00:12:07.032Z,2.40
2022-10-31T00:12:39.101Z,2.05
2022-10-31T00:13:12.377Z,2.33
2022-10-31T00:13:47.168Z,1.75
2022-10-31T00:14:19.258Z,2.90
2022-10-31T00:14:51.413Z,2.70
2022-10-31T00:15:26.097Z,2.17
2022-10-31T00:16:00.873Z,2.50
2022-10-31T00:16:33.202Z,3.17
2022-10-31T00:17:07.845Z,2.90
2022-10-31T00:17:39.981Z,2.35
2022-10-31T00:18:12.541Z,2.88
2022-10-31T00:18:47.540Z,3.17
2022-10-31T00:19:19.612Z,2.53
2022-10-31T00:19:51.683Z,2.80
2022-10-31T00:20:26.452Z,2.58
2022-10-31T00:21:01.640Z,3.10
2022-10-31T00:21:34.568Z,2.38
2022-10-31T00:22:09.220Z,2.28
2022-10-31T00:22:41.362Z,2.25
2022-10-31T00:23:13.554Z,2.65
2022-10-31T00:23:48.333Z,2.92
2022-10-31T00:24:20.477Z,2.88
2022-10-31T00:24:52.568Z,2.42
2022-10-31T00:25:24.724Z,2.92
2022-10-31T00:26:04.368Z,2.38
2022-10-31T00:26:36.481Z,2.40
2022-10-31T00:27:08.603Z,2.50
2022-10-31T00:27:43.294Z,2.80
2022-10-31T00:28:17.051Z,2.28
2022-10-31T00:28:49.663Z,2.65
2022-10-31T00:29:24.339Z,2.42
2022-10-31T00:29:56.519Z,3.17
2022-10-31T00:30:28.602Z,2.50
2022-10-31T00:31:08.576Z,2.90
2022-10-31T00:31:40.678Z,2.92
2022-10-31T00:32:12.751Z,3.03
2022-10-31T00:32:47.603Z,2.50
2022-10-31T00:33:19.731Z,2.58
2022-10-31T00:33:51.893Z,2.50
2022-10-31T00:34:26.849Z,2.88
2022-10-31T00:34:58.910Z,2.58
2022-10-31T00:35:31.401Z,2.72
2022-10-31T00:36:04.111Z,2.80
2022-10-31T00:36:38.808Z,3.20
2022-10-31T00:37:10.978Z,2.83
2022-10-31T00:37:43.075Z,2.65
2022-10-31T00:38:17.751Z,2.45
2022-10-31T00:38:50.477Z,2.70
2022-10-31T00:39:22.565Z,2.70
2022-10-31T00:39:57.245Z,2.92
2022-10-31T00:40:29.326Z,2.92
2022-10-31T00:41:01.443Z,3.08
2022-10-31T00:41:33.590Z,2.80
2022-10-31T00:42:08.462Z,2.17
2022-10-31T00:42:40.944Z,2.70
2022-10-31T00:43:13.104Z,3.53
2022-10-31T00:43:45.460Z,2.80
2022-10-31T00:44:20.347Z,2.97
2022-10-31T00:44:52.439Z,2.97
2022-10-31T00:45:25.912Z,2.30
2022-10-31T00:46:01.280Z,2.78
2022-10-31T00:46:35.954Z,2.40
2022-10-31T00:47:08.067Z,2.83
2022-10-31T00:47:42.854Z,2.88
2022-10-31T00:48:15.024Z,2.83
2022-10-31T00:48:47.098Z,2.58
2022-10-31T00:49:22.647Z,2.35
2022-10-31T00:49:55.200Z,1.85
2022-10-31T00:50:27.395Z,2.58
2022-10-31T00:51:02.734Z,2.55
2022-10-31T00:51:34.865Z,2.13
2022-10-31T00:52:07.016Z,3.25
2022-10-31T00:52:41.733Z,2.17
2022-10-31T00:53:14.047Z,2.80
2022-10-31T00:53:46.182Z,2.65
2022-10-31T00:54:20.881Z,2.72
2022-10-31T00:54:53.237Z,2.63
2022-10-31T00:55:26.276Z,2.88
2022-10-31T00:56:01.642Z,2.20
2022-10-31T00:56:34.161Z,2.35
2022-10-31T00:57:06.329Z,2.45
2022-10-31T00:57:41.094Z,2.53
2022-10-31T00:59:07.818Z,2.70
2022-10-31T00:59:41.061Z,2.80
2022-10-31T01:00:16.490Z,2.83
2022-10-31T01:00:56.001Z,2.92
2022-10-31T01:01:31.200Z,2.50
2022-10-31T01:02:06.309Z,3.15
2022-10-31T01:02:38.623Z,2.80
2022-10-31T01:03:14.116Z,2.42
2022-10-31T01:03:47.390Z,3.15
2022-10-31T01:04:19.569Z,2.35
2022-10-31T01:04:54.329Z,2.28
2022-10-31T01:05:26.866Z,2.20
2022-10-31T01:06:00.685Z,2.53
2022-10-31T01:06:35.386Z,3.10
2022-10-31T01:07:08.045Z,2.53
2022-10-31T01:07:41.541Z,2.83
2022-10-31T01:08:17.726Z,3.33
2022-10-31T01:08:49.934Z,2.88
2022-10-31T01:09:22.127Z,3.25
2022-10-31T01:09:56.819Z,2.95
2022-10-31T01:10:28.989Z,2.92
2022-10-31T01:11:07.929Z,2.47
2022-10-31T01:11:42.660Z,2.28
2022-10-31T01:12:15.298Z,2.50
2022-10-31T01:12:49.464Z,3.38
2022-10-31T01:14:16.195Z,2.38
2022-10-31T01:14:48.382Z,2.60
2022-10-31T01:15:24.061Z,2.80
2022-10-31T01:15:59.005Z,2.20
2022-10-31T01:16:31.448Z,2.85
2022-10-31T01:17:06.332Z,2.80
2022-10-31T01:17:41.664Z,2.35
2022-10-31T01:18:16.536Z,2.72
2022-10-31T01:18:48.651Z,2.20
2022-10-31T01:19:23.638Z,2.83
2022-10-31T01:19:55.840Z,2.80
2022-10-31T01:20:27.942Z,2.28
2022-10-31T01:21:02.217Z,3.17
2022-10-31T01:21:36.905Z,2.78
2022-10-31T01:22:09.020Z,2.67
2022-10-31T01:22:41.126Z,2.20
2022-10-31T01:23:15.789Z,2.75
2022-10-31T01:23:47.888Z,2.05
2022-10-31T01:24:19.991Z,2.00
2022-10-31T01:24:54.718Z,2.38
2022-10-31T01:25:26.916Z,3.10
2022-10-31T01:26:04.843Z,2.92
2022-10-31T01:26:40.765Z,2.72
2022-10-31T01:27:12.844Z,2.80
2022-10-31T01:27:44.956Z,2.60
2022-10-31T01:28:17.089Z,2.17
2022-10-31T01:28:54.582Z,2.40
2022-10-31T01:29:26.728Z,3.42
2022-10-31T01:29:58.834Z,2.28
2022-10-31T01:30:33.693Z,2.53
2022-10-31T01:31:08.150Z,2.10
2022-10-31T01:31:43.540Z,3.65
2022-10-31T01:32:18.370Z,2.03
2022-10-31T01:32:50.934Z,2.45
2022-10-31T01:33:23.166Z,2.83
2022-10-31T01:33:58.490Z,2.22
2022-10-31T01:34:30.734Z,2.70
2022-10-31T01:35:02.956Z,3.05
2022-10-31T01:35:37.669Z,2.55
2022-10-31T01:36:15.156Z,3.15
2022-10-31T01:36:52.484Z,3.05
2022-10-31T01:37:24.799Z,3.03
2022-10-31T01:37:56.940Z,3.20
2022-10-31T01:38:31.791Z,3.20
2022-10-31T01:39:06.239Z,2.78
2022-10-31T01:39:38.625Z,2.70
2022-10-31T01:40:14.237Z,2.63
2022-10-31T01:40:46.384Z,2.10
2022-10-31T01:41:21.197Z,2.00
2022-10-31T01:41:57.865Z,2.95
2022-10-31T01:42:30.121Z,2.85
2022-10-31T01:43:02.541Z,2.67
2022-10-31T01:43:47.728Z,2.67
2022-10-31T01:44:52.726Z,3.65
2022-10-31T01:45:27.557Z,2.80
2022-10-31T01:45:59.710Z,2.47
2022-10-31T01:46:37.293Z,3.35
2022-10-31T01:47:19.293Z,3.33
2022-10-31T01:47:54.064Z,2.60
2022-10-31T01:48:29.186Z,2.25
2022-10-31T01:49:08.221Z,2.25
2022-10-31T01:49:45.821Z,2.72
2022-10-31T01:50:29.575Z,2.85
2022-10-31T01:51:05.997Z,2.45
2022-10-31T01:51:42.849Z,3.17
2022-10-31T01:52:22.853Z,3.22
2022-10-31T01:52:58.824Z,1.90
2022-10-31T01:53:30.978Z,2.40
2022-10-31T01:54:07.866Z,2.75
2022-10-31T01:54:47.129Z,2.55
2022-10-31T01:55:26.458Z,2.55
2022-10-31T01:56:04.644Z,2.80
2022-10-31T01:56:42.431Z,3.53
2022-10-31T01:57:16.593Z,2.78
2022-10-31T01:57:55.737Z,3.13
2022-10-31T01:58:31.895Z,2.58
2022-10-31T01:59:07.450Z,2.55
2022-10-31T01:59:46.478Z,2.40
2022-10-31T02:00:21.345Z,1.83
2022-10-31T02:01:01.816Z,2.72
2022-10-31T02:01:41.464Z,2.60
2022-10-31T02:02:14.843Z,2.50
2022-10-31T02:02:48.967Z,3.42
2022-10-31T02:03:29.104Z,3.05
2022-10-31T02:04:02.524Z,2.72
2022-10-31T02:04:36.278Z,2.40
2022-10-31T02:05:18.134Z,3.15
2022-10-31T02:05:51.392Z,2.55
2022-10-31T02:06:37.526Z,2.35
2022-10-31T02:07:15.325Z,2.65
2022-10-31T02:07:53.062Z,2.42
2022-10-31T02:08:31.414Z,2.00
2022-10-31T02:09:05.754Z,2.88
2022-10-31T02:09:39.305Z,3.22
2022-10-31T02:10:11.498Z,2.65
2022-10-31T02:10:47.940Z,2.78
2022-10-31T02:11:20.198Z,3.20
2022-10-31T02:11:54.177Z,3.08
2022-10-31T02:12:29.577Z,3.50
2022-10-31T02:13:07.531Z,2.20
2022-10-31T02:13:43.013Z,3.33
2022-10-31T02:14:17.950Z,1.88
2022-10-31T02:14:51.070Z,2.90
2022-10-31T02:15:23.255Z,3.33
2022-10-31T02:15:59.670Z,2.38
2022-10-31T02:16:31.826Z,2.72
2022-10-31T02:17:04.714Z,2.13
2022-10-31T02:17:37.005Z,2.50
2022-10-31T02:18:12.900Z,2.95
2022-10-31T02:18:47.885Z,3.22
2022-10-31T02:19:28.931Z,2.28
2022-10-31T02:20:12.068Z,3.15
2022-10-31T02:20:54.105Z,2.72
2022-10-31T02:21:37.766Z,2.75
2022-10-31T02:22:16.785Z,3.10
2022-10-31T02:23:21.687Z,3.08
2022-10-31T02:24:41.551Z,2.15
2022-10-31T02:25:30.505Z,2.38
2022-10-31T02:26:40.664Z,2.10
2022-10-31T02:27:41.422Z,2.58
2022-10-31T02:28:32.599Z,2.90
2022-10-31T02:29:31.144Z,2.92
2022-10-31T02:30:13.625Z,2.80
2022-10-31T02:31:15.321Z,2.35
2022-10-31T02:31:58.639Z,2.30
2022-10-31T02:32:41.853Z,2.80
2022-10-31T02:33:27.498Z,2.47
2022-10-31T02:34:04.177Z,1.80
2022-10-31T02:34:39.152Z,2.67
2022-10-31T02:35:24.560Z,2.53
2022-10-31T02:36:06.074Z,3.15
2022-10-31T02:36:47.968Z,2.80
2022-10-31T02:37:27.608Z,2.63
2022-10-31T02:38:05.310Z,2.63
2022-10-31T02:38:53.936Z,2.65
2022-10-31T02:39:45.261Z,3.13
2022-10-31T02:40:25.340Z,3.28
2022-10-31T02:41:40.474Z,2.70
2022-10-31T02:42:24.558Z,2.20
2022-10-31T02:43:08.967Z,2.75
2022-10-31T02:43:49.802Z,2.80
2022-10-31T02:44:31.165Z,2.42
2022-10-31T02:45:13.622Z,2.42
2022-10-31T02:45:50.212Z,2.47
2022-10-31T02:46:29.728Z,2.42
2022-10-31T02:47:09.199Z,2.85
2022-10-31T02:47:43.868Z,2.78
2022-10-31T02:48:20.748Z,2.47
2022-10-31T02:48:59.425Z,2.78
2022-10-31T02:49:38.356Z,3.60
2022-10-31T02:50:15.809Z,2.97
2022-10-31T02:50:55.014Z,2.30
2022-10-31T02:51:28.003Z,2.78
2022-10-31T02:52:00.129Z,2.35
2022-10-31T02:52:36.875Z,2.53
2022-10-31T02:53:09.974Z,2.17
2022-10-31T02:53:42.260Z,2.28
2022-10-31T02:54:27.134Z,2.90
2022-10-31T02:54:59.698Z,2.50
2022-10-31T02:55:51.417Z,2.25
2022-10-31T02:56:26.097Z,2.78
2022-10-31T02:57:04.424Z,2.47
2022-10-31T02:57:37.885Z,2.75
2022-10-31T02:59:10.212Z,2.92
2022-10-31T02:59:51.124Z,2.38
2022-10-31T03:00:23.368Z,3.25
2022-10-31T03:01:20.163Z,1.73
2022-10-31T03:02:36.524Z,3.42
2022-10-31T03:03:13.936Z,2.38
2022-10-31T03:04:02.499Z,2.35
2022-10-31T03:05:06.024Z,2.15
2022-10-31T03:05:49.358Z,2.33
2022-10-31T03:06:31.857Z,3.05
2022-10-31T03:07:14.953Z,2.10
2022-10-31T03:07:58.431Z,2.55
2022-10-31T03:08:36.861Z,3.00
2022-10-31T03:09:20.979Z,2.15
2022-10-31T03:10:01.686Z,2.53
2022-10-31T03:10:43.979Z,2.63
2022-10-31T03:11:22.213Z,2.45
2022-10-31T03:11:59.654Z,2.40
2022-10-31T03:12:44.549Z,2.88
2022-10-31T03:13:27.735Z,2.53
2022-10-31T03:14:04.905Z,2.67
2022-10-31T03:14:47.266Z,2.63
2022-10-31T03:15:25.296Z,2.92
2022-10-31T03:16:11.147Z,3.88
2022-10-31T03:16:48.194Z,2.72
2022-10-31T03:17:29.797Z,2.35
2022-10-31T03:18:07.171Z,3.15
2022-10-31T03:18:41.992Z,3.60
2022-10-31T03:19:20.748Z,2.17
2022-10-31T03:19:57.648Z,2.55
2022-10-31T03:20:37.719Z,3.22
2022-10-31T03:21:17.274Z,2.22
2022-10-31T03:21:54.293Z,2.58
2022-10-31T03:22:31.807Z,2.28
2022-10-31T03:23:07.830Z,1.98
2022-10-31T03:23:44.018Z,2.42
2022-10-31T03:24:25.756Z,2.45
2022-10-31T03:24:59.230Z,2.92
2022-10-31T03:25:35.509Z,2.42
2022-10-31T03:26:10.777Z,2.47
2022-10-31T03:26:47.592Z,2.47
2022-10-31T03:27:27.198Z,2.08
2022-10-31T03:28:03.929Z,2.50
2022-10-31T03:28:45.161Z,1.73
2022-10-31T03:29:25.076Z,1.90
2022-10-31T03:30:01.872Z,1.65
2022-10-31T03:30:40.044Z,0.80
2022-10-31T03:31:20.002Z,1.50
2022-10-31T03:31:57.222Z,1.02
2022-10-31T03:32:36.062Z,2.42
2022-10-31T03:33:48.325Z,2.00
2022-10-31T03:34:21.397Z,3.28
2022-10-31T03:35:00.312Z,5.80
2022-10-31T03:35:34.615Z,2.65
2022-10-31T03:36:11.917Z,1.60
2022-10-31T03:36:48.534Z,2.40
2022-10-31T03:37:23.387Z,1.35
2022-10-31T03:37:57.567Z,1.45
2022-10-31T03:38:33.380Z,1.60
2022-10-31T03:39:09.426Z,1.25
2022-10-31T03:39:46.538Z,1.40
2022-10-31T03:40:24.352Z,1.88
2022-10-31T03:40:59.609Z,1.23
2022-10-31T03:41:38.650Z,2.78
2022-10-31T03:42:15.263Z,1.42
2022-10-31T03:42:53.306Z,2.13
2022-10-31T03:43:34.190Z,1.95
2022-10-31T03:44:12.187Z,1.35
2022-10-31T03:44:49.645Z,1.67
2022-10-31T03:45:28.415Z,1.63
2022-10-31T03:46:00.893Z,1.73
2022-10-31T03:46:33.524Z,1.83
2022-10-31T03:47:06.187Z,1.77
2022-10-31T03:47:45.652Z,2.10
2022-10-31T03:48:20.193Z,2.05
2022-10-31T03:48:52.785Z,1.77
2022-10-31T03:49:29.271Z,1.23
2022-10-31T03:50:02.958Z,1.73
2022-10-31T03:50:42.907Z,1.27
2022-10-31T03:51:24.305Z,2.35
2022-10-31T03:52:00.937Z,1.38
2022-10-31T03:52:38.855Z,2.50
2022-10-31T03:53:20.498Z,1.50
2022-10-31T03:53:58.432Z,1.25
2022-10-31T03:54:38.776Z,1.75
2022-10-31T03:55:19.181Z,1.30
2022-10-31T03:55:57.998Z,1.45
2022-10-31T03:56:37.699Z,2.08
2022-10-31T03:57:17.876Z,1.50
2022-10-31T03:57:54.462Z,1.05
2022-10-31T03:58:33.646Z,0.98
2022-10-31T03:59:15.088Z,1.83
2022-10-31T03:59:53.148Z,1.30
2022-10-31T04:00:28.154Z,1.00
2022-10-31T04:01:02.143Z,1.27
2022-10-31T04:01:38.543Z,2.75
2022-10-31T04:02:18.823Z,1.20
2022-10-31T04:02:59.254Z,1.85
2022-10-31T04:03:37.125Z,2.90
2022-10-31T04:04:13.022Z,1.10
2022-10-31T04:04:47.628Z,1.50
2022-10-31T04:05:21.618Z,1.80
2022-10-31T04:06:00.776Z,1.25
2022-10-31T04:06:35.872Z,1.95
2022-10-31T04:07:09.320Z,1.38
2022-10-31T04:07:48.737Z,1.67
2022-10-31T04:08:26.889Z,2.25
2022-10-31T04:09:04.784Z,1.80
2022-10-31T04:09:42.521Z,1.60
2022-10-31T04:10:17.119Z,1.80
2022-10-31T04:10:51.166Z,1.42
2022-10-31T04:11:32.569Z,1.30
2022-10-31T04:12:26.615Z,1.52
2022-10-31T04:13:23.488Z,1.42
2022-10-31T04:14:06.022Z,2.20
2022-10-31T04:14:43.540Z,1.88
2022-10-31T04:15:18.524Z,1.67
2022-10-31T04:15:53.313Z,2.72
2022-10-31T04:16:28.769Z,2.42
2022-10-31T04:17:06.048Z,1.23
2022-10-31T04:17:46.312Z,1.88
2022-10-31T04:18:21.237Z,1.65
2022-10-31T04:18:56.870Z,1.92
2022-10-31T04:19:28.989Z,2.08
2022-10-31T04:20:01.396Z,1.92
2022-10-31T04:20:36.073Z,2.58
2022-10-31T04:21:12.276Z,1.05
2022-10-31T04:21:44.506Z,1.00
2022-10-31T04:22:16.797Z,1.13
2022-10-31T04:22:51.835Z,1.52
2022-10-31T04:23:27.148Z,2.08
2022-10-31T04:23:59.806Z,2.13
2022-10-31T04:24:37.871Z,1.23
2022-10-31T04:25:10.445Z,1.63
2022-10-31T04:25:43.944Z,3.08
2022-10-31T04:26:18.925Z,4.15
2022-10-31T04:26:52.301Z,2.45
2022-10-31T04:27:25.515Z,2.15
2022-10-31T04:28:01.129Z,1.27
2022-10-31T04:28:34.866Z,2.28
2022-10-31T04:29:07.776Z,1.65
2022-10-31T04:29:45.479Z,1.42
2022-10-31T04:30:20.611Z,1.38
2022-10-31T04:30:53.052Z,1.73
2022-10-31T04:31:27.739Z,2.35
2022-10-31T04:31:59.909Z,1.98
2022-10-31T04:32:33.084Z,3.40
2022-10-31T04:33:07.817Z,1.55
2022-10-31T04:33:43.318Z,2.03
2022-10-31T04:34:15.583Z,1.80
2022-10-31T04:34:50.351Z,2.45
2022-10-31T04:35:23.756Z,2.15
2022-10-31T04:35:55.945Z,2.47
2022-10-31T04:36:30.635Z,2.20
2022-10-31T04:37:03.754Z,2.25
2022-10-31T04:37:36.033Z,2.90
2022-10-31T04:38:11.511Z,3.58
2022-10-31T04:38:44.896Z,2.25
2022-10-31T04:39:33.023Z,2.58
2022-10-31T04:40:23.746Z,4.57
2022-10-31T04:40:58.381Z,2.22
2022-10-31T04:41:59.247Z,3.28
2022-10-31T04:42:31.646Z,2.15
2022-10-31T04:43:06.125Z,1.92
2022-10-31T04:43:41.163Z,2.75
2022-10-31T04:44:13.312Z,2.28
2022-10-31T04:44:45.440Z,2.70
2022-10-31T04:45:21.352Z,1.98
2022-10-31T04:45:56.779Z,2.17
2022-10-31T04:46:28.971Z,3.40
2022-10-31T04:47:05.425Z,2.72
2022-10-31T04:47:37.526Z,2.00
2022-10-31T04:48:09.620Z,3.30
2022-10-31T04:48:47.917Z,3.95
2022-10-31T04:49:20.076Z,2.25
2022-10-31T04:49:52.227Z,1.95
2022-10-31T04:50:26.972Z,2.15
2022-10-31T04:51:00.656Z,3.10
2022-10-31T04:51:33.040Z,2.63
2022-10-31T04:52:09.225Z,3.03
2022-10-31T04:52:42.060Z,2.25
2022-10-31T04:53:15.709Z,2.38
2022-10-31T04:54:09.420Z,2.65
2022-10-31T04:55:00.201Z,3.95
2022-10-31T04:55:57.501Z,3.15
2022-10-31T04:56:31.293Z,2.30
2022-10-31T04:57:06.232Z,2.28
2022-10-31T04:57:42.063Z,3.38
2022-10-31T04:59:12.585Z,2.58
2022-10-31T05:00:29.453Z,3.95
2022-10-31T05:01:01.862Z,3.45
2022-10-31T05:01:36.814Z,3.30
2022-10-31T05:02:09.474Z,3.67
2022-10-31T05:03:00.762Z,2.50
2022-10-31T05:03:36.189Z,2.80
2022-10-31T05:04:11.167Z,5.28
2022-10-31T05:04:43.679Z,2.17
2022-10-31T05:05:20.270Z,2.00
2022-10-31T05:05:52.928Z,1.75
2022-10-31T05:06:25.339Z,2.70
2022-10-31T05:07:00.236Z,3.30
2022-10-31T05:07:32.910Z,5.13
2022-10-31T05:08:05.385Z,4.45
2022-10-31T05:08:40.944Z,3.85
2022-10-31T05:09:14.059Z,2.90
2022-10-31T05:09:46.162Z,3.90
2022-10-31T05:10:24.315Z,4.88
2022-10-31T05:11:04.178Z,2.30
2022-10-31T05:11:37.347Z,3.53
2022-10-31T05:12:27.945Z,5.88
2022-10-31T05:13:12.638Z,5.05
2022-10-31T05:14:05.750Z,5.15
2022-10-31T05:15:05.305Z,5.95
2022-10-31T05:15:58.600Z,6.18
2022-10-31T05:17:02.840Z,4.50
2022-10-31T05:17:59.072Z,6.25
2022-10-31T05:19:00.613Z,6.20
2022-10-31T05:19:56.586Z,6.10
2022-10-31T05:21:00.158Z,7.25
2022-10-31T05:21:42.940Z,5.75
2022-10-31T05:22:16.732Z,5.13
2022-10-31T05:22:50.948Z,7.60
2022-10-31T05:23:25.816Z,8.55
2022-10-31T05:23:57.904Z,6.57
2022-10-31T05:24:30.344Z,6.90
2022-10-31T05:25:05.029Z,9.55
2022-10-31T05:25:37.311Z,4.85
2022-10-31T05:26:10.099Z,5.43
2022-10-31T05:26:44.876Z,6.72
2022-10-31T05:27:18.408Z,7.18
2022-10-31T05:27:51.862Z,5.70
2022-10-31T05:28:26.669Z,6.88
2022-10-31T05:28:59.620Z,6.80
2022-10-31T05:29:34.580Z,10.02
2022-10-31T05:30:11.800Z,4.60
2022-10-31T05:30:43.930Z,6.03
2022-10-31T05:31:19.450Z,6.32
2022-10-31T05:31:54.359Z,7.30
2022-10-31T05:32:46.558Z,7.88
2022-10-31T05:33:44.014Z,8.10
2022-10-31T05:34:34.497Z,7.35
2022-10-31T05:35:36.261Z,5.40
2022-10-31T05:36:23.390Z,8.38
2022-10-31T05:37:21.340Z,7.65
2022-10-31T05:37:53.769Z,5.60
2022-10-31T05:38:25.956Z,8.43
2022-10-31T05:39:02.266Z,7.78
2022-10-31T05:39:40.437Z,7.22
2022-10-31T05:40:20.205Z,6.82
2022-10-31T05:40:58.722Z,7.93
2022-10-31T05:41:31.283Z,7.25
2022-10-31T05:42:16.593Z,5.97
2022-10-31T05:42:51.684Z,4.60
2022-10-31T05:43:23.775Z,3.45
2022-10-31T05:43:55.901Z,4.07
2022-10-31T05:44:36.054Z,5.78
2022-10-31T05:45:19.669Z,5.35
2022-10-31T05:45:58.351Z,4.38
2022-10-31T05:46:51.667Z,4.95
2022-10-31T05:47:42.852Z,5.00
2022-10-31T05:48:49.596Z,2.97
2022-10-31T05:49:40.087Z,5.47
2022-10-31T05:50:36.491Z,5.35
2022-10-31T05:51:15.111Z,3.97
2022-10-31T05:51:47.187Z,3.17
2022-10-31T05:52:22.365Z,2.92
2022-10-31T05:53:06.263Z,6.82
2022-10-31T05:53:45.985Z,5.00
2022-10-31T05:54:18.402Z,4.93
2022-10-31T05:54:51.756Z,6.35
2022-10-31T05:55:26.760Z,4.72
2022-10-31T05:56:10.055Z,4.47
2022-10-31T05:56:42.452Z,5.22
2022-10-31T05:57:17.910Z,4.75
2022-10-31T05:57:50.074Z,4.72
2022-10-31T05:58:25.043Z,4.53
2022-10-31T05:59:07.209Z,6.65
2022-10-31T05:59:39.364Z,5.85
2022-10-31T06:00:15.420Z,8.27
2022-10-31T06:00:56.145Z,4.22
2022-10-31T06:01:28.623Z,5.90
2022-10-31T06:02:05.771Z,3.67
2022-10-31T06:03:01.129Z,5.57
2022-10-31T06:03:48.968Z,3.83
2022-10-31T06:04:22.392Z,4.32
2022-10-31T06:04:54.710Z,5.18
2022-10-31T06:05:30.967Z,4.35
2022-10-31T06:06:06.131Z,3.55
2022-10-31T06:06:42.359Z,6.28
2022-10-31T06:07:17.073Z,5.00
2022-10-31T06:07:49.671Z,6.15
2022-10-31T06:08:22.037Z,4.60
2022-10-31T06:08:57.766Z,3.60
2022-10-31T06:09:31.425Z,3.88
2022-10-31T06:10:06.235Z,7.78
2022-10-31T06:10:41.174Z,6.03
2022-10-31T06:11:13.311Z,3.85
2022-10-31T06:12:17.656Z,3.83
2022-10-31T06:13:18.129Z,3.97
2022-10-31T06:13:53.907Z,6.00
2022-10-31T06:14:30.468Z,7.00
2022-10-31T06:15:06.300Z,7.40
2022-10-31T06:15:38.423Z,6.63
2022-10-31T06:16:13.164Z,6.40
2022-10-31T06:16:48.135Z,7.72
2022-10-31T06:17:40.493Z,7.72
2022-10-31T06:18:29.850Z,3.05
2022-10-31T06:19:02.114Z,5.03
2022-10-31T06:19:34.269Z,4.32
2022-10-31T06:20:10.838Z,5.88
2022-10-31T06:20:53.317Z,8.55
2022-10-31T06:21:30.788Z,6.05
2022-10-31T06:22:03.551Z,5.45
2022-10-31T06:22:35.788Z,3.63
2022-10-31T06:23:10.548Z,3.22
2022-10-31T06:23:43.756Z,4.20
2022-10-31T06:24:35.462Z,1.50
2022-10-31T06:25:28.330Z,3.67
2022-10-31T06:26:03.070Z,2.65
2022-10-31T06:26:35.342Z,2.30
2022-10-31T06:27:08.090Z,2.70
2022-10-31T06:27:40.336Z,5.95
2022-10-31T06:28:21.567Z,7.40
2022-10-31T06:29:14.498Z,4.53
2022-10-31T06:30:04.295Z,4.95
2022-10-31T06:30:37.866Z,5.13
2022-10-31T06:31:12.652Z,3.97
2022-10-31T06:31:44.816Z,3.15
2022-10-31T06:32:17.224Z,2.22
2022-10-31T06:32:53.268Z,3.33
2022-10-31T06:33:25.926Z,2.47
2022-10-31T06:34:06.844Z,4.43
2022-10-31T06:34:41.670Z,3.78
2022-10-31T06:35:14.812Z,3.05
2022-10-31T06:35:48.301Z,5.90
2022-10-31T06:36:24.422Z,2.35
2022-10-31T06:37:01.535Z,2.78
2022-10-31T06:37:34.915Z,4.45
2022-10-31T06:38:19.532Z,3.00
2022-10-31T06:38:52.371Z,4.03
2022-10-31T06:39:27.533Z,2.42
2022-10-31T06:40:02.720Z,3.47
2022-10-31T06:40:39.538Z,4.03
2022-10-31T06:41:25.521Z,4.75
2022-10-31T06:41:59.429Z,3.85
2022-10-31T06:42:32.806Z,2.78
2022-10-31T06:43:09.244Z,2.17
2022-10-31T06:43:41.436Z,3.58
2022-10-31T06:44:35.116Z,3.15
2022-10-31T06:45:26.302Z,4.10
2022-10-31T06:46:29.634Z,3.85
2022-10-31T06:47:14.028Z,2.63
2022-10-31T06:48:16.730Z,3.45
2022-10-31T06:49:09.496Z,4.60
2022-10-31T06:49:49.811Z,4.18
2022-10-31T06:50:25.784Z,5.75
2022-10-31T06:50:59.853Z,7.82
2022-10-31T06:51:35.178Z,3.30
2022-10-31T06:52:10.323Z,5.63
2022-10-31T06:52:42.428Z,4.97
2022-10-31T06:53:17.893Z,3.70
2022-10-31T06:53:50.049Z,7.25
2022-10-31T06:54:23.228Z,4.15
2022-10-31T06:54:58.129Z,3.92
2022-10-31T06:55:30.259Z,1.90
2022-10-31T06:56:02.504Z,1.33
2022-10-31T06:56:39.215Z,3.70
2022-10-31T06:57:11.674Z,1.65
2022-10-31T06:57:50.800Z,2.28
2022-10-31T06:58:25.493Z,3.45
2022-10-31T06:59:01.023Z,1.70
2022-10-31T06:59:55.637Z,2.60
2022-10-31T07:00:37.386Z,2.85
2022-10-31T07:01:15.489Z,2.60
2022-10-31T07:01:47.960Z,3.63
2022-10-31T07:02:20.225Z,1.80
2022-10-31T07:02:59.133Z,2.22
2022-10-31T07:03:31.377Z,1.75
2022-10-31T07:04:03.582Z,1.80
2022-10-31T07:04:42.163Z,1.35
2022-10-31T07:05:16.520Z,2.42
2022-10-31T07:05:48.735Z,2.40
2022-10-31T07:06:23.791Z,2.90
2022-10-31T07:06:55.939Z,2.85
2022-10-31T07:07:30.793Z,2.47
2022-10-31T07:08:08.189Z,4.57
2022-10-31T07:08:40.267Z,3.17
2022-10-31T07:09:12.918Z,5.38
2022-10-31T07:09:47.708Z,4.88
2022-10-31T07:10:22.708Z,5.60
2022-10-31T07:11:05.968Z,4.15
2022-10-31T07:11:39.024Z,5.05
2022-10-31T07:12:11.433Z,4.55
2022-10-31T07:12:51.210Z,3.25
2022-10-31T07:13:26.684Z,2.47
2022-10-31T07:14:09.560Z,1.88
2022-10-31T07:14:41.648Z,2.20
2022-10-31T07:15:13.923Z,1.90
2022-10-31T07:15:48.671Z,1.38
2022-10-31T07:16:20.961Z,1.60
2022-10-31T07:16:55.768Z,2.38
2022-10-31T07:17:34.581Z,2.10
2022-10-31T07:18:11.599Z,2.28
2022-10-31T07:18:43.853Z,2.50
2022-10-31T07:19:20.547Z,1.80
2022-10-31T07:19:52.718Z,2.00
2022-10-31T07:20:24.900Z,4.32
2022-10-31T07:20:59.909Z,2.85
2022-10-31T07:21:32.498Z,1.73
2022-10-31T07:22:04.715Z,3.17
2022-10-31T07:22:45.618Z,2.40
2022-10-31T07:23:20.622Z,2.03
2022-10-31T07:24:07.988Z,2.25
2022-10-31T07:24:49.187Z,2.88
2022-10-31T07:25:33.197Z,2.97
2022-10-31T07:26:14.096Z,2.45
2022-10-31T07:26:50.921Z,4.72
2022-10-31T07:27:23.136Z,4.93
2022-10-31T07:27:58.262Z,4.82
2022-10-31T07:28:30.780Z,5.03
2022-10-31T07:29:05.857Z,4.35
2022-10-31T07:29:37.911Z,3.10
2022-10-31T07:30:12.981Z,2.78
2022-10-31T07:30:52.988Z,4.00
2022-10-31T07:31:26.630Z,3.45
2022-10-31T07:32:03.854Z,3.30
2022-10-31T07:32:40.535Z,3.92
2022-10-31T07:33:13.543Z,2.95
2022-10-31T07:34:11.068Z,3.33
2022-10-31T07:35:01.772Z,3.63
2022-10-31T07:35:51.533Z,4.28
2022-10-31T07:36:27.867Z,3.22
2022-10-31T07:37:04.544Z,3.38
2022-10-31T07:37:39.520Z,3.15
2022-10-31T07:38:15.817Z,3.58
2022-10-31T07:38:52.023Z,4.18
2022-10-31T07:39:24.206Z,3.97
2022-10-31T07:39:56.885Z,4.00
2022-10-31T07:40:31.921Z,3.92
2022-10-31T07:41:04.103Z,1.92
2022-10-31T07:41:40.883Z,4.20
2022-10-31T07:42:15.083Z,4.38
2022-10-31T07:42:51.930Z,4.07
2022-10-31T07:44:05.319Z,4.47
2022-10-31T07:45:00.601Z,2.15
2022-10-31T07:45:54.880Z,3.25
2022-10-31T07:46:52.937Z,2.45
2022-10-31T07:47:52.165Z,2.47
2022-10-31T07:48:43.279Z,2.17
2022-10-31T07:49:36.224Z,3.30
2022-10-31T07:50:37.256Z,3.70
2022-10-31T07:51:46.466Z,2.58
2022-10-31T07:52:41.892Z,2.83
2022-10-31T07:53:48.627Z,3.33
2022-10-31T07:54:28.851Z,2.17
2022-10-31T07:55:01.019Z,1.92
2022-10-31T07:55:36.529Z,2.17
2022-10-31T07:56:08.612Z,3.83
2022-10-31T07:56:43.257Z,2.65
2022-10-31T07:57:16.082Z,2.92
2022-10-31T07:57:56.953Z,4.22
2022-10-31T07:58:31.774Z,4.93
2022-10-31T07:59:04.835Z,4.80
2022-10-31T07:59:36.991Z,5.57
2022-10-31T08:00:16.644Z,3.20
2022-10-31T08:00:49.032Z,2.28
2022-10-31T08:01:33.934Z,2.13
2022-10-31T08:02:35.744Z,3.47
2022-10-31T08:03:39.904Z,2.65
2022-10-31T08:04:30.367Z,2.00
2022-10-31T08:05:34.860Z,3.20
2022-10-31T08:06:45.129Z,2.25
2022-10-31T08:07:25.967Z,4.20
2022-10-31T08:08:07.495Z,3.47
2022-10-31T08:08:39.616Z,3.80
2022-10-31T08:09:18.936Z,4.13
2022-10-31T08:09:51.078Z,5.78
2022-10-31T08:10:32.492Z,3.30
2022-10-31T08:11:04.735Z,4.10
2022-10-31T08:11:39.572Z,4.32
2022-10-31T08:12:12.464Z,3.17
2022-10-31T08:12:44.568Z,5.30
2022-10-31T08:13:19.331Z,4.32
2022-10-31T08:13:53.521Z,4.70
2022-10-31T08:14:28.333Z,4.45
2022-10-31T08:15:00.879Z,3.15
2022-10-31T08:15:35.351Z,4.60
2022-10-31T08:16:11.575Z,7.22
2022-10-31T08:16:51.246Z,4.10
2022-10-31T08:17:23.484Z,4.57
2022-10-31T08:18:03.970Z,3.60
2022-10-31T08:18:38.623Z,6.13
2022-10-31T08:19:15.734Z,4.00
2022-10-31T08:19:49.056Z,3.85
2022-10-31T08:20:22.644Z,4.25
2022-10-31T08:20:57.491Z,6.13
2022-10-31T08:21:29.653Z,4.38
2022-10-31T08:22:02.604Z,5.35
2022-10-31T08:22:42.853Z,4.88
2022-10-31T08:23:17.102Z,4.95
2022-10-31T08:23:53.287Z,2.67
2022-10-31T08:24:31.349Z,2.60
2022-10-31T08:25:04.955Z,3.17
2022-10-31T08:25:40.168Z,7.05
2022-10-31T08:26:12.361Z,6.57
2022-10-31T08:26:44.915Z,6.53
2022-10-31T08:27:20.474Z,4.50